sensor_id;sensor_type;location;lat;lon;timestamp;P1;durP1;ratioP1;P2;durP2;ratioP2
57325;SDS011;43161;50.950;18.224;2023-02-28T00:00:17;16.30;;;7.40;;
57325;SDS011;43161;50.950;18.224;2023-02-28T00:02:44;16.70;;;7.00;;
57325;SDS011;43161;50.950;18.224;2023-02-28T00:05:11;17.50;;;8.30;;
57325;SDS011;43161;50.950;18.224;2023-02-28T00:07:38;17.80;;;7.80;;
57325;SDS011;43161;50.950;18.224;2023-02-28T00:10:05;16.30;;;7.20;;
57325;SDS011;43161;50.950;18.224;2023-02-28T00:12:33;16.90;;;7.60;;
57325;SDS011;43161;50.950;18.224;2023-02-28T00:15:01;16.70;;;6.60;;
57325;SDS011;43161;50.950;18.224;2023-02-28T00:17:27;15.70;;;7.70;;
57325;SDS011;43161;50.950;18.224;2023-02-28T00:19:53;18.60;;;7.60;;
57325;SDS011;43161;50.950;18.224;2023-02-28T00:22:20;17.30;;;7.10;;
57325;SDS011;43161;50.950;18.224;2023-02-28T00:24:46;15.50;;;6.70;;
57325;SDS011;43161;50.950;18.224;2023-02-28T00:27:13;14.10;;;6.60;;
57325;SDS011;43161;50.950;18.224;2023-02-28T00:29:39;17.40;;;7.70;;
57325;SDS011;43161;50.950;18.224;2023-02-28T00:32:05;16.90;;;7.80;;
57325;SDS011;43161;50.950;18.224;2023-02-28T00:34:32;17.20;;;8.40;;
57325;SDS011;43161;50.950;18.224;2023-02-28T00:37:06;19.30;;;8.60;;
57325;SDS011;43161;50.950;18.224;2023-02-28T00:39:33;20.20;;;8.70;;
57325;SDS011;43161;50.950;18.224;2023-02-28T00:42:00;17.80;;;8.20;;
57325;SDS011;43161;50.950;18.224;2023-02-28T00:44:26;17.80;;;8.50;;
57325;SDS011;43161;50.950;18.224;2023-02-28T00:46:52;21.70;;;8.80;;
57325;SDS011;43161;50.950;18.224;2023-02-28T00:49:19;15.60;;;7.20;;
57325;SDS011;43161;50.950;18.224;2023-02-28T00:51:46;19.20;;;8.30;;
57325;SDS011;43161;50.950;18.224;2023-02-28T00:54:12;17.80;;;8.40;;
57325;SDS011;43161;50.950;18.224;2023-02-28T00:56:38;17.30;;;7.90;;
57325;SDS011;43161;50.950;18.224;2023-02-28T00:59:03;17.40;;;7.20;;
57325;SDS011;43161;50.950;18.224;2023-02-28T01:01:29;16.10;;;7.30;;
57325;SDS011;43161;50.950;18.224;2023-02-28T01:03:55;15.30;;;8.10;;
57325;SDS011;43161;50.950;18.224;2023-02-28T01:06:21;14.90;;;6.70;;
57325;SDS011;43161;50.950;18.224;2023-02-28T01:08:47;14.00;;;6.90;;
57325;SDS011;43161;50.950;18.224;2023-02-28T01:11:13;14.50;;;7.10;;
57325;SDS011;43161;50.950;18.224;2023-02-28T01:13:41;14.80;;;7.10;;
57325;SDS011;43161;50.950;18.224;2023-02-28T01:16:07;15.20;;;7.20;;
57325;SDS011;43161;50.950;18.224;2023-02-28T01:18:33;15.50;;;7.20;;
57325;SDS011;43161;50.950;18.224;2023-02-28T01:21:06;16.30;;;7.80;;
57325;SDS011;43161;50.950;18.224;2023-02-28T01:23:33;20.20;;;9.00;;
57325;SDS011;43161;50.950;18.224;2023-02-28T01:28:45;18.50;;;8.60;;
57325;SDS011;43161;50.950;18.224;2023-02-28T01:31:11;19.00;;;8.50;;
57325;SDS011;43161;50.950;18.224;2023-02-28T01:33:38;18.50;;;8.70;;
57325;SDS011;43161;50.950;18.224;2023-02-28T01:36:05;15.70;;;7.60;;
57325;SDS011;43161;50.950;18.224;2023-02-28T01:38:33;15.10;;;6.90;;
57325;SDS011;43161;50.950;18.224;2023-02-28T01:40:59;14.30;;;6.50;;
57325;SDS011;43161;50.950;18.224;2023-02-28T01:43:25;14.50;;;6.50;;
57325;SDS011;43161;50.950;18.224;2023-02-28T01:45:53;14.30;;;6.10;;
57325;SDS011;43161;50.950;18.224;2023-02-28T01:48:21;15.90;;;6.90;;
57325;SDS011;43161;50.950;18.224;2023-02-28T01:50:51;14.80;;;6.80;;
57325;SDS011;43161;50.950;18.224;2023-02-28T01:53:24;16.00;;;6.60;;
57325;SDS011;43161;50.950;18.224;2023-02-28T01:55:53;16.90;;;6.30;;
57325;SDS011;43161;50.950;18.224;2023-02-28T01:58:20;14.40;;;6.80;;
57325;SDS011;43161;50.950;18.224;2023-02-28T02:00:46;14.90;;;6.30;;
57325;SDS011;43161;50.950;18.224;2023-02-28T02:03:13;15.80;;;7.50;;
57325;SDS011;43161;50.950;18.224;2023-02-28T02:05:41;19.10;;;8.60;;
57325;SDS011;43161;50.950;18.224;2023-02-28T02:08:11;22.00;;;10.80;;
57325;SDS011;43161;50.950;18.224;2023-02-28T02:10:42;22.50;;;11.10;;
57325;SDS011;43161;50.950;18.224;2023-02-28T02:16:00;20.70;;;10.30;;
57325;SDS011;43161;50.950;18.224;2023-02-28T02:18:37;21.70;;;10.20;;
57325;SDS011;43161;50.950;18.224;2023-02-28T02:43:32;30.10;;;14.50;;
57325;SDS011;43161;50.950;18.224;2023-02-28T02:46:12;24.70;;;12.10;;
57325;SDS011;43161;50.950;18.224;2023-02-28T02:48:44;32.00;;;15.10;;
57325;SDS011;43161;50.950;18.224;2023-02-28T02:51:13;31.40;;;15.70;;
57325;SDS011;43161;50.950;18.224;2023-02-28T02:53:47;30.40;;;14.60;;
57325;SDS011;43161;50.950;18.224;2023-02-28T02:56:15;30.00;;;15.00;;
57325;SDS011;43161;50.950;18.224;2023-02-28T02:58:44;27.40;;;12.40;;
57325;SDS011;43161;50.950;18.224;2023-02-28T03:01:12;24.00;;;10.80;;
57325;SDS011;43161;50.950;18.224;2023-02-28T03:04:05;25.60;;;11.10;;
57325;SDS011;43161;50.950;18.224;2023-02-28T03:06:36;24.70;;;10.90;;
57325;SDS011;43161;50.950;18.224;2023-02-28T03:09:02;23.10;;;10.20;;
57325;SDS011;43161;50.950;18.224;2023-02-28T03:11:30;21.90;;;10.50;;
57325;SDS011;43161;50.950;18.224;2023-02-28T03:16:59;20.90;;;9.50;;
57325;SDS011;43161;50.950;18.224;2023-02-28T03:30:24;23.00;;;10.40;;
57325;SDS011;43161;50.950;18.224;2023-02-28T03:32:58;22.00;;;10.50;;
57325;SDS011;43161;50.950;18.224;2023-02-28T03:35:32;24.50;;;10.90;;
57325;SDS011;43161;50.950;18.224;2023-02-28T03:38:05;22.70;;;9.40;;
57325;SDS011;43161;50.950;18.224;2023-02-28T03:40:34;22.70;;;9.70;;
57325;SDS011;43161;50.950;18.224;2023-02-28T03:43:03;24.10;;;10.40;;
57325;SDS011;43161;50.950;18.224;2023-02-28T03:45:34;25.10;;;9.80;;
57325;SDS011;43161;50.950;18.224;2023-02-28T03:50:48;22.90;;;9.70;;
57325;SDS011;43161;50.950;18.224;2023-02-28T04:04:03;20.50;;;9.10;;
57325;SDS011;43161;50.950;18.224;2023-02-28T04:06:30;24.60;;;11.50;;
57325;SDS011;43161;50.950;18.224;2023-02-28T04:08:58;22.10;;;10.10;;
57325;SDS011;43161;50.950;18.224;2023-02-28T04:14:08;23.30;;;9.90;;
57325;SDS011;43161;50.950;18.224;2023-02-28T04:16:35;22.50;;;9.10;;
57325;SDS011;43161;50.950;18.224;2023-02-28T04:19:03;24.10;;;10.30;;
57325;SDS011;43161;50.950;18.224;2023-02-28T04:21:31;27.20;;;12.60;;
57325;SDS011;43161;50.950;18.224;2023-02-28T04:23:58;24.40;;;10.70;;
57325;SDS011;43161;50.950;18.224;2023-02-28T04:26:35;23.70;;;10.10;;
57325;SDS011;43161;50.950;18.224;2023-02-28T04:29:03;22.90;;;10.20;;
57325;SDS011;43161;50.950;18.224;2023-02-28T04:31:30;21.70;;;9.60;;
57325;SDS011;43161;50.950;18.224;2023-02-28T04:33:56;23.70;;;9.90;;
57325;SDS011;43161;50.950;18.224;2023-02-28T04:36:22;25.50;;;11.20;;
57325;SDS011;43161;50.950;18.224;2023-02-28T04:38:48;23.50;;;10.10;;
57325;SDS011;43161;50.950;18.224;2023-02-28T04:41:15;23.00;;;10.00;;
57325;SDS011;43161;50.950;18.224;2023-02-28T04:43:41;22.50;;;9.60;;
57325;SDS011;43161;50.950;18.224;2023-02-28T04:46:08;23.40;;;9.10;;
57325;SDS011;43161;50.950;18.224;2023-02-28T04:48:35;25.00;;;9.80;;
57325;SDS011;43161;50.950;18.224;2023-02-28T04:51:06;25.80;;;10.90;;
57325;SDS011;43161;50.950;18.224;2023-02-28T04:53:33;28.70;;;10.40;;
57325;SDS011;43161;50.950;18.224;2023-02-28T04:56:00;28.00;;;11.30;;
57325;SDS011;43161;50.950;18.224;2023-02-28T04:58:26;29.60;;;12.40;;
57325;SDS011;43161;50.950;18.224;2023-02-28T05:00:53;26.80;;;12.20;;
57325;SDS011;43161;50.950;18.224;2023-02-28T05:03:22;31.50;;;12.40;;
57325;SDS011;43161;50.950;18.224;2023-02-28T05:05:48;27.80;;;11.80;;
57325;SDS011;43161;50.950;18.224;2023-02-28T05:08:14;28.80;;;14.90;;
57325;SDS011;43161;50.950;18.224;2023-02-28T05:10:39;33.00;;;16.20;;
57325;SDS011;43161;50.950;18.224;2023-02-28T05:13:05;37.30;;;16.20;;
57325;SDS011;43161;50.950;18.224;2023-02-28T05:15:30;48.00;;;26.20;;
57325;SDS011;43161;50.950;18.224;2023-02-28T05:17:56;50.60;;;25.00;;
57325;SDS011;43161;50.950;18.224;2023-02-28T05:20:22;58.70;;;28.70;;
57325;SDS011;43161;50.950;18.224;2023-02-28T05:22:49;55.90;;;26.70;;
57325;SDS011;43161;50.950;18.224;2023-02-28T05:25:19;49.50;;;23.60;;
57325;SDS011;43161;50.950;18.224;2023-02-28T05:27:47;48.30;;;21.40;;
57325;SDS011;43161;50.950;18.224;2023-02-28T05:30:13;58.30;;;23.00;;
57325;SDS011;43161;50.950;18.224;2023-02-28T05:32:39;53.20;;;23.30;;
57325;SDS011;43161;50.950;18.224;2023-02-28T05:35:09;46.20;;;20.00;;
57325;SDS011;43161;50.950;18.224;2023-02-28T05:37:38;54.50;;;23.40;;
57325;SDS011;43161;50.950;18.224;2023-02-28T05:40:04;55.30;;;22.30;;
57325;SDS011;43161;50.950;18.224;2023-02-28T05:42:36;51.30;;;22.20;;
57325;SDS011;43161;50.950;18.224;2023-02-28T05:45:02;55.60;;;23.40;;
57325;SDS011;43161;50.950;18.224;2023-02-28T05:47:29;62.20;;;24.90;;
57325;SDS011;43161;50.950;18.224;2023-02-28T05:49:56;60.20;;;25.50;;
57325;SDS011;43161;50.950;18.224;2023-02-28T05:52:21;63.80;;;28.00;;
57325;SDS011;43161;50.950;18.224;2023-02-28T05:54:47;141.30;;;42.50;;
57325;SDS011;43161;50.950;18.224;2023-02-28T05:57:13;171.80;;;49.70;;
57325;SDS011;43161;50.950;18.224;2023-02-28T05:59:39;225.20;;;61.50;;
57325;SDS011;43161;50.950;18.224;2023-02-28T06:02:05;344.80;;;88.10;;
57325;SDS011;43161;50.950;18.224;2023-02-28T06:04:34;315.70;;;81.10;;
57325;SDS011;43161;50.950;18.224;2023-02-28T06:06:59;93.10;;;36.90;;
57325;SDS011;43161;50.950;18.224;2023-02-28T06:09:27;197.20;;;62.70;;
57325;SDS011;43161;50.950;18.224;2023-02-28T06:11:52;180.80;;;59.40;;
57325;SDS011;43161;50.950;18.224;2023-02-28T06:14:20;166.10;;;56.30;;
57325;SDS011;43161;50.950;18.224;2023-02-28T06:16:46;196.00;;;68.30;;
57325;SDS011;43161;50.950;18.224;2023-02-28T06:19:12;133.40;;;47.70;;
57325;SDS011;43161;50.950;18.224;2023-02-28T06:21:38;153.20;;;51.80;;
57325;SDS011;43161;50.950;18.224;2023-02-28T06:24:04;141.20;;;48.60;;
57325;SDS011;43161;50.950;18.224;2023-02-28T06:26:31;72.10;;;27.80;;
57325;SDS011;43161;50.950;18.224;2023-02-28T06:28:57;112.10;;;40.50;;
57325;SDS011;43161;50.950;18.224;2023-02-28T06:31:23;102.50;;;35.70;;
57325;SDS011;43161;50.950;18.224;2023-02-28T06:33:51;86.30;;;31.60;;
57325;SDS011;43161;50.950;18.224;2023-02-28T06:36:17;48.00;;;20.40;;
57325;SDS011;43161;50.950;18.224;2023-02-28T06:38:43;37.70;;;15.90;;
57325;SDS011;43161;50.950;18.224;2023-02-28T06:41:09;38.10;;;15.90;;
57325;SDS011;43161;50.950;18.224;2023-02-28T06:43:36;30.80;;;13.60;;
57325;SDS011;43161;50.950;18.224;2023-02-28T06:46:05;25.00;;;10.80;;
57325;SDS011;43161;50.950;18.224;2023-02-28T06:48:33;26.10;;;11.50;;
57325;SDS011;43161;50.950;18.224;2023-02-28T06:51:03;24.60;;;10.90;;
57325;SDS011;43161;50.950;18.224;2023-02-28T06:56:03;22.30;;;10.10;;
57325;SDS011;43161;50.950;18.224;2023-02-28T06:58:33;28.00;;;10.50;;
57325;SDS011;43161;50.950;18.224;2023-02-28T07:00:59;23.20;;;9.30;;
57325;SDS011;43161;50.950;18.224;2023-02-28T07:03:25;20.90;;;9.20;;
57325;SDS011;43161;50.950;18.224;2023-02-28T07:05:51;22.00;;;10.20;;
57325;SDS011;43161;50.950;18.224;2023-02-28T07:08:16;26.50;;;11.20;;
57325;SDS011;43161;50.950;18.224;2023-02-28T07:10:43;22.30;;;10.20;;
57325;SDS011;43161;50.950;18.224;2023-02-28T07:13:09;26.60;;;12.40;;
57325;SDS011;43161;50.950;18.224;2023-02-28T07:15:36;36.70;;;15.00;;
57325;SDS011;43161;50.950;18.224;2023-02-28T07:18:02;32.60;;;14.90;;
57325;SDS011;43161;50.950;18.224;2023-02-28T07:20:28;31.50;;;15.30;;
57325;SDS011;43161;50.950;18.224;2023-02-28T07:22:54;38.40;;;18.50;;
57325;SDS011;43161;50.950;18.224;2023-02-28T07:25:25;35.50;;;17.60;;
57325;SDS011;43161;50.950;18.224;2023-02-28T07:27:53;35.50;;;17.90;;
57325;SDS011;43161;50.950;18.224;2023-02-28T07:30:19;35.00;;;18.00;;
57325;SDS011;43161;50.950;18.224;2023-02-28T07:32:46;33.30;;;15.50;;
57325;SDS011;43161;50.950;18.224;2023-02-28T07:35:12;38.00;;;20.40;;
57325;SDS011;43161;50.950;18.224;2023-02-28T07:37:38;25.90;;;12.10;;
57325;SDS011;43161;50.950;18.224;2023-02-28T07:40:04;31.90;;;14.30;;
57325;SDS011;43161;50.950;18.224;2023-02-28T07:42:34;31.50;;;13.70;;
57325;SDS011;43161;50.950;18.224;2023-02-28T07:45:00;39.30;;;18.00;;
57325;SDS011;43161;50.950;18.224;2023-02-28T07:47:28;32.40;;;15.40;;
57325;SDS011;43161;50.950;18.224;2023-02-28T07:49:55;27.00;;;12.30;;
57325;SDS011;43161;50.950;18.224;2023-02-28T07:52:21;20.10;;;9.50;;
57325;SDS011;43161;50.950;18.224;2023-02-28T07:54:49;17.90;;;7.80;;
57325;SDS011;43161;50.950;18.224;2023-02-28T07:57:15;21.00;;;9.20;;
57325;SDS011;43161;50.950;18.224;2023-02-28T07:59:41;15.70;;;7.20;;
57325;SDS011;43161;50.950;18.224;2023-02-28T08:02:10;15.00;;;5.80;;
57325;SDS011;43161;50.950;18.224;2023-02-28T08:04:38;16.40;;;6.10;;
57325;SDS011;43161;50.950;18.224;2023-02-28T08:07:04;13.20;;;4.70;;
57325;SDS011;43161;50.950;18.224;2023-02-28T08:09:30;14.50;;;5.30;;
57325;SDS011;43161;50.950;18.224;2023-02-28T08:11:56;14.30;;;5.80;;
57325;SDS011;43161;50.950;18.224;2023-02-28T08:14:22;13.40;;;5.40;;
57325;SDS011;43161;50.950;18.224;2023-02-28T08:16:48;11.70;;;4.90;;
57325;SDS011;43161;50.950;18.224;2023-02-28T08:19:14;15.30;;;5.60;;
57325;SDS011;43161;50.950;18.224;2023-02-28T08:21:39;12.30;;;5.20;;
57325;SDS011;43161;50.950;18.224;2023-02-28T08:24:05;12.90;;;5.40;;
57325;SDS011;43161;50.950;18.224;2023-02-28T08:26:32;12.50;;;4.40;;
57325;SDS011;43161;50.950;18.224;2023-02-28T08:28:59;19.10;;;6.10;;
57325;SDS011;43161;50.950;18.224;2023-02-28T08:31:25;11.60;;;4.60;;
57325;SDS011;43161;50.950;18.224;2023-02-28T08:33:51;14.20;;;5.00;;
57325;SDS011;43161;50.950;18.224;2023-02-28T08:36:18;13.40;;;5.30;;
57325;SDS011;43161;50.950;18.224;2023-02-28T08:38:44;14.00;;;6.00;;
57325;SDS011;43161;50.950;18.224;2023-02-28T08:41:11;19.80;;;7.40;;
57325;SDS011;43161;50.950;18.224;2023-02-28T08:43:38;15.80;;;6.10;;
57325;SDS011;43161;50.950;18.224;2023-02-28T08:46:05;13.50;;;5.50;;
57325;SDS011;43161;50.950;18.224;2023-02-28T08:48:32;16.90;;;7.00;;
57325;SDS011;43161;50.950;18.224;2023-02-28T08:51:03;13.90;;;5.40;;
57325;SDS011;43161;50.950;18.224;2023-02-28T08:53:32;12.70;;;5.20;;
57325;SDS011;43161;50.950;18.224;2023-02-28T08:56:02;15.40;;;4.80;;
57325;SDS011;43161;50.950;18.224;2023-02-28T08:58:30;11.90;;;5.00;;
57325;SDS011;43161;50.950;18.224;2023-02-28T09:00:55;16.00;;;5.80;;
57325;SDS011;43161;50.950;18.224;2023-02-28T09:03:22;16.70;;;6.30;;
57325;SDS011;43161;50.950;18.224;2023-02-28T09:05:51;12.50;;;5.40;;
57325;SDS011;43161;50.950;18.224;2023-02-28T09:08:24;13.40;;;5.20;;
57325;SDS011;43161;50.950;18.224;2023-02-28T09:10:50;11.90;;;5.20;;
57325;SDS011;43161;50.950;18.224;2023-02-28T09:13:17;16.40;;;6.50;;
57325;SDS011;43161;50.950;18.224;2023-02-28T09:15:44;17.20;;;6.20;;
57325;SDS011;43161;50.950;18.224;2023-02-28T09:18:10;15.50;;;7.00;;
57325;SDS011;43161;50.950;18.224;2023-02-28T09:20:39;16.60;;;6.80;;
57325;SDS011;43161;50.950;18.224;2023-02-28T09:23:07;16.50;;;7.20;;
57325;SDS011;43161;50.950;18.224;2023-02-28T09:25:34;15.10;;;7.00;;
57325;SDS011;43161;50.950;18.224;2023-02-28T09:28:00;17.00;;;7.00;;
57325;SDS011;43161;50.950;18.224;2023-02-28T09:30:26;17.10;;;7.30;;
57325;SDS011;43161;50.950;18.224;2023-02-28T09:32:52;18.90;;;7.20;;
57325;SDS011;43161;50.950;18.224;2023-02-28T09:35:19;15.80;;;7.30;;
57325;SDS011;43161;50.950;18.224;2023-02-28T09:37:47;15.30;;;7.10;;
57325;SDS011;43161;50.950;18.224;2023-02-28T09:40:13;15.30;;;6.90;;
57325;SDS011;43161;50.950;18.224;2023-02-28T09:42:40;14.30;;;6.60;;
57325;SDS011;43161;50.950;18.224;2023-02-28T09:45:28;15.20;;;6.90;;
57325;SDS011;43161;50.950;18.224;2023-02-28T09:47:56;15.40;;;6.40;;
57325;SDS011;43161;50.950;18.224;2023-02-28T09:50:30;14.90;;;7.20;;
57325;SDS011;43161;50.950;18.224;2023-02-28T09:52:59;14.70;;;7.20;;
57325;SDS011;43161;50.950;18.224;2023-02-28T09:55:37;15.60;;;7.10;;
57325;SDS011;43161;50.950;18.224;2023-02-28T09:58:14;15.80;;;7.10;;
57325;SDS011;43161;50.950;18.224;2023-02-28T10:00:44;16.20;;;8.10;;
57325;SDS011;43161;50.950;18.224;2023-02-28T10:05:59;16.80;;;7.70;;
57325;SDS011;43161;50.950;18.224;2023-02-28T10:11:23;17.50;;;9.10;;
57325;SDS011;43161;50.950;18.224;2023-02-28T10:13:52;16.80;;;8.90;;
57325;SDS011;43161;50.950;18.224;2023-02-28T10:16:21;21.00;;;8.60;;
57325;SDS011;43161;50.950;18.224;2023-02-28T10:18:59;16.70;;;7.90;;
57325;SDS011;43161;50.950;18.224;2023-02-28T10:21:36;18.20;;;8.20;;
57325;SDS011;43161;50.950;18.224;2023-02-28T10:24:11;16.40;;;7.80;;
57325;SDS011;43161;50.950;18.224;2023-02-28T10:26:43;16.90;;;8.40;;
57325;SDS011;43161;50.950;18.224;2023-02-28T10:29:11;16.40;;;7.70;;
57325;SDS011;43161;50.950;18.224;2023-02-28T10:31:38;15.00;;;7.30;;
57325;SDS011;43161;50.950;18.224;2023-02-28T10:34:04;15.70;;;8.10;;
57325;SDS011;43161;50.950;18.224;2023-02-28T10:36:31;20.50;;;10.90;;
57325;SDS011;43161;50.950;18.224;2023-02-28T10:38:57;15.70;;;7.90;;
57325;SDS011;43161;50.950;18.224;2023-02-28T10:41:32;15.80;;;7.50;;
57325;SDS011;43161;50.950;18.224;2023-02-28T10:46:47;16.00;;;6.90;;
57325;SDS011;43161;50.950;18.224;2023-02-28T10:49:15;17.00;;;9.10;;
57325;SDS011;43161;50.950;18.224;2023-02-28T10:51:47;16.00;;;8.40;;
57325;SDS011;43161;50.950;18.224;2023-02-28T10:54:20;17.90;;;9.00;;
57325;SDS011;43161;50.950;18.224;2023-02-28T10:57:15;19.10;;;9.70;;
57325;SDS011;43161;50.950;18.224;2023-02-28T10:59:41;20.50;;;9.50;;
57325;SDS011;43161;50.950;18.224;2023-02-28T11:04:56;19.70;;;9.90;;
57325;SDS011;43161;50.950;18.224;2023-02-28T11:07:23;19.10;;;10.10;;
57325;SDS011;43161;50.950;18.224;2023-02-28T11:09:51;21.00;;;10.40;;
57325;SDS011;43161;50.950;18.224;2023-02-28T11:14:49;21.30;;;11.00;;
57325;SDS011;43161;50.950;18.224;2023-02-28T11:17:21;18.70;;;10.20;;
57325;SDS011;43161;50.950;18.224;2023-02-28T11:19:50;23.90;;;13.00;;
57325;SDS011;43161;50.950;18.224;2023-02-28T11:22:21;20.60;;;10.70;;
57325;SDS011;43161;50.950;18.224;2023-02-28T11:24:55;29.30;;;12.70;;
57325;SDS011;43161;50.950;18.224;2023-02-28T11:27:40;22.20;;;11.30;;
57325;SDS011;43161;50.950;18.224;2023-02-28T11:35:57;21.60;;;10.90;;
57325;SDS011;43161;50.950;18.224;2023-02-28T11:38:26;21.20;;;10.80;;
57325;SDS011;43161;50.950;18.224;2023-02-28T11:46:20;22.30;;;11.20;;
57325;SDS011;43161;50.950;18.224;2023-02-28T11:51:27;19.90;;;9.40;;
57325;SDS011;43161;50.950;18.224;2023-02-28T11:59:47;18.30;;;8.40;;
57325;SDS011;43161;50.950;18.224;2023-02-28T12:05:24;17.20;;;7.90;;
57325;SDS011;43161;50.950;18.224;2023-02-28T12:08:03;17.30;;;7.90;;
57325;SDS011;43161;50.950;18.224;2023-02-28T12:10:42;18.00;;;8.10;;
57325;SDS011;43161;50.950;18.224;2023-02-28T12:21:25;16.10;;;7.60;;
57325;SDS011;43161;50.950;18.224;2023-02-28T12:26:42;22.30;;;8.80;;
57325;SDS011;43161;50.950;18.224;2023-02-28T12:34:53;16.10;;;7.10;;
57325;SDS011;43161;50.950;18.224;2023-02-28T12:42:58;17.30;;;7.90;;
57325;SDS011;43161;50.950;18.224;2023-02-28T12:45:27;17.20;;;7.50;;
57325;SDS011;43161;50.950;18.224;2023-02-28T12:48:04;18.00;;;8.70;;
57325;SDS011;43161;50.950;18.224;2023-02-28T12:50:32;17.50;;;8.80;;
57325;SDS011;43161;50.950;18.224;2023-02-28T12:53:01;18.40;;;8.70;;
57325;SDS011;43161;50.950;18.224;2023-02-28T13:09:25;18.60;;;8.40;;
57325;SDS011;43161;50.950;18.224;2023-02-28T13:11:52;15.90;;;7.50;;
57325;SDS011;43161;50.950;18.224;2023-02-28T13:14:20;17.10;;;7.90;;
57325;SDS011;43161;50.950;18.224;2023-02-28T13:16:53;17.10;;;8.30;;
57325;SDS011;43161;50.950;18.224;2023-02-28T13:19:22;20.00;;;9.30;;
57325;SDS011;43161;50.950;18.224;2023-02-28T13:21:51;19.50;;;9.30;;
57325;SDS011;43161;50.950;18.224;2023-02-28T13:29:28;16.50;;;8.30;;
57325;SDS011;43161;50.950;18.224;2023-02-28T13:34:27;19.50;;;8.70;;
57325;SDS011;43161;50.950;18.224;2023-02-28T13:58:46;19.00;;;9.00;;
57325;SDS011;43161;50.950;18.224;2023-02-28T14:07:30;17.30;;;8.80;;
57325;SDS011;43161;50.950;18.224;2023-02-28T14:10:03;20.50;;;10.30;;
57325;SDS011;43161;50.950;18.224;2023-02-28T14:20:43;18.00;;;9.40;;
57325;SDS011;43161;50.950;18.224;2023-02-28T14:31:18;21.50;;;9.80;;
57325;SDS011;43161;50.950;18.224;2023-02-28T14:36:46;19.20;;;9.70;;
57325;SDS011;43161;50.950;18.224;2023-02-28T14:39:16;18.80;;;9.70;;
57325;SDS011;43161;50.950;18.224;2023-02-28T14:41:45;18.60;;;10.20;;
57325;SDS011;43161;50.950;18.224;2023-02-28T14:46:45;20.10;;;10.70;;
57325;SDS011;43161;50.950;18.224;2023-02-28T14:49:18;19.90;;;9.60;;
57325;SDS011;43161;50.950;18.224;2023-02-28T14:55:03;19.50;;;10.10;;
57325;SDS011;43161;50.950;18.224;2023-02-28T14:57:40;21.30;;;10.20;;
57325;SDS011;43161;50.950;18.224;2023-02-28T15:02:41;21.00;;;10.80;;
57325;SDS011;43161;50.950;18.224;2023-02-28T15:07:46;20.80;;;10.90;;
57325;SDS011;43161;50.950;18.224;2023-02-28T15:10:20;22.80;;;11.80;;
57325;SDS011;43161;50.950;18.224;2023-02-28T15:18:10;21.20;;;10.80;;
57325;SDS011;43161;50.950;18.224;2023-02-28T15:20:41;20.70;;;10.80;;
57325;SDS011;43161;50.950;18.224;2023-02-28T15:23:08;21.70;;;10.80;;
57325;SDS011;43161;50.950;18.224;2023-02-28T15:25:34;27.00;;;13.00;;
57325;SDS011;43161;50.950;18.224;2023-02-28T15:28:00;22.30;;;11.00;;
57325;SDS011;43161;50.950;18.224;2023-02-28T15:30:29;24.20;;;12.20;;
57325;SDS011;43161;50.950;18.224;2023-02-28T15:35:33;30.50;;;14.40;;
57325;SDS011;43161;50.950;18.224;2023-02-28T15:38:00;32.70;;;15.00;;
57325;SDS011;43161;50.950;18.224;2023-02-28T15:40:49;29.10;;;14.60;;
57325;SDS011;43161;50.950;18.224;2023-02-28T15:43:29;30.60;;;13.80;;
57325;SDS011;43161;50.950;18.224;2023-02-28T15:48:32;30.00;;;13.90;;
57325;SDS011;43161;50.950;18.224;2023-02-28T15:53:35;27.30;;;12.90;;
57325;SDS011;43161;50.950;18.224;2023-02-28T15:58:55;27.80;;;13.10;;
57325;SDS011;43161;50.950;18.224;2023-02-28T16:01:26;27.70;;;13.50;;
57325;SDS011;43161;50.950;18.224;2023-02-28T16:03:56;25.70;;;13.20;;
57325;SDS011;43161;50.950;18.224;2023-02-28T16:08:56;29.80;;;14.20;;
57325;SDS011;43161;50.950;18.224;2023-02-28T16:11:22;30.20;;;14.50;;
57325;SDS011;43161;50.950;18.224;2023-02-28T16:13:48;34.70;;;16.70;;
57325;SDS011;43161;50.950;18.224;2023-02-28T16:16:21;39.90;;;17.30;;
57325;SDS011;43161;50.950;18.224;2023-02-28T16:18:49;36.20;;;16.10;;
57325;SDS011;43161;50.950;18.224;2023-02-28T16:21:16;32.90;;;15.10;;
57325;SDS011;43161;50.950;18.224;2023-02-28T16:23:42;33.80;;;15.50;;
57325;SDS011;43161;50.950;18.224;2023-02-28T16:26:08;30.50;;;14.10;;
57325;SDS011;43161;50.950;18.224;2023-02-28T16:28:36;31.10;;;14.00;;
57325;SDS011;43161;50.950;18.224;2023-02-28T16:31:03;34.20;;;14.90;;
57325;SDS011;43161;50.950;18.224;2023-02-28T16:33:31;35.20;;;14.10;;
57325;SDS011;43161;50.950;18.224;2023-02-28T16:35:58;31.00;;;14.00;;
57325;SDS011;43161;50.950;18.224;2023-02-28T16:38:24;29.40;;;13.50;;
57325;SDS011;43161;50.950;18.224;2023-02-28T16:40:50;28.50;;;13.00;;
57325;SDS011;43161;50.950;18.224;2023-02-28T16:43:18;30.00;;;12.50;;
57325;SDS011;43161;50.950;18.224;2023-02-28T16:45:46;34.50;;;15.80;;
57325;SDS011;43161;50.950;18.224;2023-02-28T16:48:14;47.80;;;19.20;;
57325;SDS011;43161;50.950;18.224;2023-02-28T16:50:41;63.10;;;20.50;;
57325;SDS011;43161;50.950;18.224;2023-02-28T16:53:07;67.70;;;21.80;;
57325;SDS011;43161;50.950;18.224;2023-02-28T16:55:33;52.40;;;17.40;;
57325;SDS011;43161;50.950;18.224;2023-02-28T16:58:00;39.20;;;16.30;;
57325;SDS011;43161;50.950;18.224;2023-02-28T17:00:27;42.90;;;16.70;;
57325;SDS011;43161;50.950;18.224;2023-02-28T17:02:54;45.50;;;16.50;;
57325;SDS011;43161;50.950;18.224;2023-02-28T17:05:21;45.10;;;16.80;;
57325;SDS011;43161;50.950;18.224;2023-02-28T17:07:47;45.70;;;17.80;;
57325;SDS011;43161;50.950;18.224;2023-02-28T17:12:41;40.60;;;16.50;;
57325;SDS011;43161;50.950;18.224;2023-02-28T17:15:08;37.00;;;16.10;;
57325;SDS011;43161;50.950;18.224;2023-02-28T17:17:35;39.50;;;15.60;;
57325;SDS011;43161;50.950;18.224;2023-02-28T17:20:01;36.50;;;15.70;;
57325;SDS011;43161;50.950;18.224;2023-02-28T17:22:28;35.90;;;15.30;;
57325;SDS011;43161;50.950;18.224;2023-02-28T17:24:53;34.70;;;15.30;;
57325;SDS011;43161;50.950;18.224;2023-02-28T17:27:24;33.70;;;15.80;;
57325;SDS011;43161;50.950;18.224;2023-02-28T17:29:50;35.00;;;15.20;;
57325;SDS011;43161;50.950;18.224;2023-02-28T17:32:16;33.30;;;15.70;;
57325;SDS011;43161;50.950;18.224;2023-02-28T17:34:42;37.90;;;15.80;;
57325;SDS011;43161;50.950;18.224;2023-02-28T17:37:09;32.30;;;14.80;;
57325;SDS011;43161;50.950;18.224;2023-02-28T17:39:35;33.90;;;15.40;;
57325;SDS011;43161;50.950;18.224;2023-02-28T17:42:01;35.00;;;14.90;;
57325;SDS011;43161;50.950;18.224;2023-02-28T17:44:27;37.20;;;14.50;;
57325;SDS011;43161;50.950;18.224;2023-02-28T17:46:53;35.40;;;15.30;;
57325;SDS011;43161;50.950;18.224;2023-02-28T17:49:20;33.60;;;13.50;;
57325;SDS011;43161;50.950;18.224;2023-02-28T17:51:46;33.00;;;13.50;;
57325;SDS011;43161;50.950;18.224;2023-02-28T17:54:12;34.60;;;13.20;;
57325;SDS011;43161;50.950;18.224;2023-02-28T17:56:39;30.30;;;13.50;;
57325;SDS011;43161;50.950;18.224;2023-02-28T17:59:05;34.80;;;14.20;;